sensor_id;sensor_type;location;lat;lon;timestamp;P1;durP1;ratioP1;P2;durP2;ratioP2
71937;SDS011;59810;48.800;9.086;2023-07-31T00:01:02;4.37;;;1.20;;
71937;SDS011;59810;48.800;9.086;2023-07-31T00:03:28;4.45;;;1.05;;
71937;SDS011;59810;48.800;9.086;2023-07-31T00:05:53;5.80;;;1.23;;
71937;SDS011;59810;48.800;9.086;2023-07-31T00:08:18;5.57;;;1.30;;
71937;SDS011;59810;48.800;9.086;2023-07-31T00:10:44;6.47;;;1.17;;
71937;SDS011;59810;48.800;9.086;2023-07-31T00:13:09;4.47;;;1.13;;
71937;SDS011;59810;48.800;9.086;2023-07-31T00:15:34;3.47;;;1.00;;
71937;SDS011;59810;48.800;9.086;2023-07-31T00:18:00;5.13;;;1.30;;
71937;SDS011;59810;48.800;9.086;2023-07-31T00:20:26;5.80;;;1.25;;
71937;SDS011;59810;48.800;9.086;2023-07-31T00:22:51;8.23;;;1.57;;
71937;SDS011;59810;48.800;9.086;2023-07-31T00:25:17;6.57;;;1.77;;
71937;SDS011;59810;48.800;9.086;2023-07-31T00:27:42;3.73;;;1.00;;
71937;SDS011;59810;48.800;9.086;2023-07-31T00:30:09;4.23;;;1.50;;
71937;SDS011;59810;48.800;9.086;2023-07-31T00:32:35;3.83;;;1.00;;
71937;SDS011;59810;48.800;9.086;2023-07-31T00:35:00;3.83;;;1.27;;
71937;SDS011;59810;48.800;9.086;2023-07-31T00:37:26;3.58;;;0.90;;
71937;SDS011;59810;48.800;9.086;2023-07-31T00:39:52;4.60;;;1.33;;
71937;SDS011;59810;48.800;9.086;2023-07-31T00:42:17;5.57;;;1.20;;
71937;SDS011;59810;48.800;9.086;2023-07-31T00:44:43;4.77;;;1.20;;
71937;SDS011;59810;48.800;9.086;2023-07-31T00:47:08;5.10;;;1.20;;
71937;SDS011;59810;48.800;9.086;2023-07-31T00:49:33;3.93;;;1.10;;
71937;SDS011;59810;48.800;9.086;2023-07-31T00:51:59;4.07;;;1.10;;
71937;SDS011;59810;48.800;9.086;2023-07-31T00:54:24;8.88;;;1.30;;
71937;SDS011;59810;48.800;9.086;2023-07-31T00:56:50;6.13;;;1.33;;
71937;SDS011;59810;48.800;9.086;2023-07-31T00:59:18;4.97;;;1.20;;
71937;SDS011;59810;48.800;9.086;2023-07-31T01:01:43;9.07;;;1.30;;
71937;SDS011;59810;48.800;9.086;2023-07-31T01:04:10;5.37;;;1.20;;
71937;SDS011;59810;48.800;9.086;2023-07-31T01:06:38;3.85;;;1.23;;
71937;SDS011;59810;48.800;9.086;2023-07-31T01:09:11;5.60;;;1.40;;
71937;SDS011;59810;48.800;9.086;2023-07-31T01:11:48;4.13;;;1.10;;
71937;SDS011;59810;48.800;9.086;2023-07-31T01:14:17;4.75;;;1.10;;
71937;SDS011;59810;48.800;9.086;2023-07-31T01:16:43;5.13;;;1.43;;
71937;SDS011;59810;48.800;9.086;2023-07-31T01:19:08;4.83;;;1.20;;
71937;SDS011;59810;48.800;9.086;2023-07-31T01:24:18;3.58;;;1.20;;
71937;SDS011;59810;48.800;9.086;2023-07-31T01:26:45;5.17;;;1.23;;
71937;SDS011;59810;48.800;9.086;2023-07-31T01:29:17;2.95;;;1.10;;
71937;SDS011;59810;48.800;9.086;2023-07-31T01:31:51;4.57;;;1.30;;
71937;SDS011;59810;48.800;9.086;2023-07-31T01:34:20;5.93;;;1.30;;
71937;SDS011;59810;48.800;9.086;2023-07-31T01:36:47;5.35;;;1.88;;
71937;SDS011;59810;48.800;9.086;2023-07-31T01:39:12;5.90;;;1.30;;
71937;SDS011;59810;48.800;9.086;2023-07-31T01:41:37;6.33;;;1.07;;
71937;SDS011;59810;48.800;9.086;2023-07-31T01:44:03;5.70;;;1.30;;
71937;SDS011;59810;48.800;9.086;2023-07-31T01:46:28;5.70;;;1.38;;
71937;SDS011;59810;48.800;9.086;2023-07-31T01:48:54;7.57;;;1.30;;
71937;SDS011;59810;48.800;9.086;2023-07-31T01:51:19;5.93;;;1.30;;
71937;SDS011;59810;48.800;9.086;2023-07-31T01:53:44;5.00;;;1.13;;
71937;SDS011;59810;48.800;9.086;2023-07-31T01:56:10;4.33;;;1.20;;
71937;SDS011;59810;48.800;9.086;2023-07-31T01:58:35;4.07;;;1.20;;
71937;SDS011;59810;48.800;9.086;2023-07-31T02:01:00;8.20;;;1.67;;
71937;SDS011;59810;48.800;9.086;2023-07-31T02:03:26;4.63;;;1.50;;
71937;SDS011;59810;48.800;9.086;2023-07-31T02:05:51;5.10;;;1.33;;
71937;SDS011;59810;48.800;9.086;2023-07-31T02:08:16;6.87;;;1.30;;
71937;SDS011;59810;48.800;9.086;2023-07-31T02:10:42;5.93;;;1.53;;
71937;SDS011;59810;48.800;9.086;2023-07-31T02:13:07;5.03;;;1.20;;
71937;SDS011;59810;48.800;9.086;2023-07-31T02:15:33;4.00;;;1.00;;
71937;SDS011;59810;48.800;9.086;2023-07-31T02:17:58;5.60;;;1.27;;
71937;SDS011;59810;48.800;9.086;2023-07-31T02:20:24;6.15;;;1.60;;
71937;SDS011;59810;48.800;9.086;2023-07-31T02:22:49;6.27;;;1.30;;
71937;SDS011;59810;48.800;9.086;2023-07-31T02:25:15;4.93;;;1.30;;
71937;SDS011;59810;48.800;9.086;2023-07-31T02:27:40;4.75;;;1.05;;
71937;SDS011;59810;48.800;9.086;2023-07-31T02:30:06;5.70;;;1.20;;
71937;SDS011;59810;48.800;9.086;2023-07-31T02:32:32;4.88;;;1.10;;
71937;SDS011;59810;48.800;9.086;2023-07-31T02:34:57;4.30;;;1.10;;
71937;SDS011;59810;48.800;9.086;2023-07-31T02:37:22;7.00;;;1.23;;
71937;SDS011;59810;48.800;9.086;2023-07-31T02:39:48;5.30;;;1.00;;
71937;SDS011;59810;48.800;9.086;2023-07-31T02:42:14;4.80;;;1.02;;
71937;SDS011;59810;48.800;9.086;2023-07-31T02:44:39;4.73;;;1.30;;
71937;SDS011;59810;48.800;9.086;2023-07-31T02:47:05;4.35;;;1.10;;
71937;SDS011;59810;48.800;9.086;2023-07-31T02:49:30;7.37;;;1.73;;
71937;SDS011;59810;48.800;9.086;2023-07-31T02:51:56;3.50;;;1.10;;
71937;SDS011;59810;48.800;9.086;2023-07-31T02:54:21;3.97;;;1.20;;
71937;SDS011;59810;48.800;9.086;2023-07-31T02:56:47;4.27;;;1.13;;
71937;SDS011;59810;48.800;9.086;2023-07-31T02:59:12;4.18;;;1.10;;
71937;SDS011;59810;48.800;9.086;2023-07-31T03:01:38;5.07;;;1.30;;
71937;SDS011;59810;48.800;9.086;2023-07-31T03:04:03;3.73;;;1.60;;
71937;SDS011;59810;48.800;9.086;2023-07-31T03:06:29;4.40;;;1.30;;
71937;SDS011;59810;48.800;9.086;2023-07-31T03:08:54;5.78;;;1.27;;
71937;SDS011;59810;48.800;9.086;2023-07-31T03:11:20;5.00;;;1.30;;
71937;SDS011;59810;48.800;9.086;2023-07-31T03:13:45;7.80;;;1.77;;
71937;SDS011;59810;48.800;9.086;2023-07-31T03:16:10;3.37;;;1.30;;
71937;SDS011;59810;48.800;9.086;2023-07-31T03:18:36;4.23;;;1.10;;
71937;SDS011;59810;48.800;9.086;2023-07-31T03:21:01;6.57;;;1.10;;
71937;SDS011;59810;48.800;9.086;2023-07-31T03:23:26;4.17;;;1.20;;
71937;SDS011;59810;48.800;9.086;2023-07-31T03:25:55;4.45;;;1.00;;
71937;SDS011;59810;48.800;9.086;2023-07-31T03:28:21;3.70;;;1.00;;
71937;SDS011;59810;48.800;9.086;2023-07-31T03:30:47;6.60;;;1.50;;
71937;SDS011;59810;48.800;9.086;2023-07-31T03:33:12;4.00;;;1.15;;
71937;SDS011;59810;48.800;9.086;2023-07-31T03:35:37;3.47;;;1.30;;
71937;SDS011;59810;48.800;9.086;2023-07-31T03:38:02;4.80;;;1.10;;
71937;SDS011;59810;48.800;9.086;2023-07-31T03:40:28;7.00;;;1.40;;
71937;SDS011;59810;48.800;9.086;2023-07-31T03:42:53;6.40;;;1.30;;
71937;SDS011;59810;48.800;9.086;2023-07-31T03:45:18;6.53;;;1.20;;
71937;SDS011;59810;48.800;9.086;2023-07-31T03:47:44;4.95;;;1.30;;
71937;SDS011;59810;48.800;9.086;2023-07-31T03:50:10;3.70;;;1.20;;
71937;SDS011;59810;48.800;9.086;2023-07-31T03:52:35;6.07;;;1.23;;
71937;SDS011;59810;48.800;9.086;2023-07-31T03:55:00;6.23;;;1.23;;
71937;SDS011;59810;48.800;9.086;2023-07-31T03:57:26;7.20;;;1.40;;
71937;SDS011;59810;48.800;9.086;2023-07-31T03:59:52;4.10;;;1.10;;
71937;SDS011;59810;48.800;9.086;2023-07-31T04:02:17;7.50;;;1.30;;
71937;SDS011;59810;48.800;9.086;2023-07-31T04:04:43;5.57;;;1.30;;
71937;SDS011;59810;48.800;9.086;2023-07-31T04:07:09;5.33;;;1.60;;
71937;SDS011;59810;48.800;9.086;2023-07-31T04:09:34;8.40;;;1.40;;
71937;SDS011;59810;48.800;9.086;2023-07-31T04:11:59;6.10;;;1.35;;
71937;SDS011;59810;48.800;9.086;2023-07-31T04:14:25;6.87;;;1.13;;
71937;SDS011;59810;48.800;9.086;2023-07-31T04:16:50;4.83;;;1.20;;
71937;SDS011;59810;48.800;9.086;2023-07-31T04:19:15;3.37;;;1.30;;
71937;SDS011;59810;48.800;9.086;2023-07-31T04:21:41;4.55;;;1.38;;
71937;SDS011;59810;48.800;9.086;2023-07-31T04:24:07;5.03;;;1.05;;
71937;SDS011;59810;48.800;9.086;2023-07-31T04:26:32;4.43;;;1.50;;
71937;SDS011;59810;48.800;9.086;2023-07-31T04:28:58;4.13;;;1.10;;
71937;SDS011;59810;48.800;9.086;2023-07-31T04:31:23;4.63;;;1.20;;
71937;SDS011;59810;48.800;9.086;2023-07-31T04:33:48;7.47;;;1.57;;
71937;SDS011;59810;48.800;9.086;2023-07-31T04:36:13;4.53;;;1.40;;
71937;SDS011;59810;48.800;9.086;2023-07-31T04:38:39;4.47;;;1.13;;
71937;SDS011;59810;48.800;9.086;2023-07-31T04:41:06;7.88;;;1.45;;
71937;SDS011;59810;48.800;9.086;2023-07-31T04:43:31;7.07;;;1.70;;
71937;SDS011;59810;48.800;9.086;2023-07-31T04:45:56;4.13;;;1.37;;
71937;SDS011;59810;48.800;9.086;2023-07-31T04:48:23;4.30;;;1.30;;
71937;SDS011;59810;48.800;9.086;2023-07-31T04:50:48;4.80;;;1.40;;
71937;SDS011;59810;48.800;9.086;2023-07-31T04:53:14;5.60;;;1.30;;
71937;SDS011;59810;48.800;9.086;2023-07-31T04:55:39;4.23;;;1.00;;
71937;SDS011;59810;48.800;9.086;2023-07-31T04:58:04;5.40;;;1.00;;
71937;SDS011;59810;48.800;9.086;2023-07-31T05:00:30;4.32;;;1.10;;
71937;SDS011;59810;48.800;9.086;2023-07-31T05:02:55;5.27;;;1.10;;
71937;SDS011;59810;48.800;9.086;2023-07-31T05:05:20;3.87;;;1.20;;
71937;SDS011;59810;48.800;9.086;2023-07-31T05:07:46;5.40;;;1.10;;
71937;SDS011;59810;48.800;9.086;2023-07-31T05:10:11;6.10;;;1.48;;
71937;SDS011;59810;48.800;9.086;2023-07-31T05:12:37;5.33;;;1.17;;
71937;SDS011;59810;48.800;9.086;2023-07-31T05:15:02;6.10;;;1.10;;
71937;SDS011;59810;48.800;9.086;2023-07-31T05:17:28;5.63;;;1.08;;
71937;SDS011;59810;48.800;9.086;2023-07-31T05:19:53;6.77;;;1.20;;
71937;SDS011;59810;48.800;9.086;2023-07-31T05:22:18;6.57;;;1.37;;
71937;SDS011;59810;48.800;9.086;2023-07-31T05:24:44;4.50;;;1.20;;
71937;SDS011;59810;48.800;9.086;2023-07-31T05:27:09;7.83;;;1.40;;
71937;SDS011;59810;48.800;9.086;2023-07-31T05:29:35;3.47;;;1.30;;
71937;SDS011;59810;48.800;9.086;2023-07-31T05:32:00;4.80;;;1.47;;
71937;SDS011;59810;48.800;9.086;2023-07-31T05:34:26;4.73;;;1.37;;
71937;SDS011;59810;48.800;9.086;2023-07-31T05:36:51;6.33;;;1.70;;
71937;SDS011;59810;48.800;9.086;2023-07-31T05:39:16;5.07;;;1.23;;
71937;SDS011;59810;48.800;9.086;2023-07-31T05:41:43;3.83;;;1.10;;
71937;SDS011;59810;48.800;9.086;2023-07-31T05:44:08;3.90;;;1.10;;
71937;SDS011;59810;48.800;9.086;2023-07-31T05:46:34;5.38;;;1.40;;
71937;SDS011;59810;48.800;9.086;2023-07-31T05:48:59;8.20;;;1.50;;
71937;SDS011;59810;48.800;9.086;2023-07-31T05:51:25;5.40;;;1.48;;
71937;SDS011;59810;48.800;9.086;2023-07-31T05:53:51;5.50;;;1.17;;
71937;SDS011;59810;48.800;9.086;2023-07-31T05:56:16;5.93;;;1.50;;
71937;SDS011;59810;48.800;9.086;2023-07-31T05:58:42;8.77;;;1.40;;
71937;SDS011;59810;48.800;9.086;2023-07-31T06:01:07;4.97;;;1.23;;
71937;SDS011;59810;48.800;9.086;2023-07-31T06:03:32;5.00;;;1.20;;
71937;SDS011;59810;48.800;9.086;2023-07-31T06:05:58;5.13;;;1.30;;
71937;SDS011;59810;48.800;9.086;2023-07-31T06:08:23;4.20;;;1.33;;
71937;SDS011;59810;48.800;9.086;2023-07-31T06:10:48;4.27;;;1.20;;
71937;SDS011;59810;48.800;9.086;2023-07-31T06:13:14;5.00;;;1.50;;
71937;SDS011;59810;48.800;9.086;2023-07-31T06:15:39;5.33;;;1.33;;
71937;SDS011;59810;48.800;9.086;2023-07-31T06:18:04;4.65;;;1.17;;
71937;SDS011;59810;48.800;9.086;2023-07-31T06:20:32;5.53;;;1.20;;
71937;SDS011;59810;48.800;9.086;2023-07-31T06:23:01;5.25;;;1.38;;
71937;SDS011;59810;48.800;9.086;2023-07-31T06:25:26;4.70;;;1.30;;
71937;SDS011;59810;48.800;9.086;2023-07-31T06:27:51;5.17;;;1.33;;
71937;SDS011;59810;48.800;9.086;2023-07-31T06:30:17;5.50;;;1.17;;
71937;SDS011;59810;48.800;9.086;2023-07-31T06:32:42;5.37;;;1.40;;
71937;SDS011;59810;48.800;9.086;2023-07-31T06:35:08;5.07;;;1.30;;
71937;SDS011;59810;48.800;9.086;2023-07-31T06:37:33;5.38;;;1.23;;
71937;SDS011;59810;48.800;9.086;2023-07-31T06:39:59;5.83;;;1.30;;
71937;SDS011;59810;48.800;9.086;2023-07-31T06:42:24;5.00;;;1.37;;
71937;SDS011;59810;48.800;9.086;2023-07-31T06:44:49;7.63;;;1.20;;
71937;SDS011;59810;48.800;9.086;2023-07-31T06:47:15;6.73;;;1.30;;
71937;SDS011;59810;48.800;9.086;2023-07-31T06:49:40;3.97;;;1.50;;
71937;SDS011;59810;48.800;9.086;2023-07-31T06:52:05;5.97;;;1.63;;
71937;SDS011;59810;48.800;9.086;2023-07-31T06:54:31;5.50;;;1.50;;
71937;SDS011;59810;48.800;9.086;2023-07-31T06:56:56;5.60;;;1.50;;
71937;SDS011;59810;48.800;9.086;2023-07-31T06:59:22;8.07;;;2.10;;
71937;SDS011;59810;48.800;9.086;2023-07-31T07:01:47;6.77;;;1.17;;
71937;SDS011;59810;48.800;9.086;2023-07-31T07:04:13;6.17;;;1.63;;
71937;SDS011;59810;48.800;9.086;2023-07-31T07:06:38;4.22;;;1.13;;
71937;SDS011;59810;48.800;9.086;2023-07-31T07:09:04;4.77;;;1.47;;
71937;SDS011;59810;48.800;9.086;2023-07-31T07:11:29;5.53;;;1.30;;
71937;SDS011;59810;48.800;9.086;2023-07-31T07:13:54;6.50;;;1.40;;
71937;SDS011;59810;48.800;9.086;2023-07-31T07:16:20;6.30;;;1.30;;
71937;SDS011;59810;48.800;9.086;2023-07-31T07:18:45;7.47;;;1.30;;
71937;SDS011;59810;48.800;9.086;2023-07-31T07:21:10;4.10;;;1.10;;
71937;SDS011;59810;48.800;9.086;2023-07-31T07:23:40;7.55;;;1.80;;
71937;SDS011;59810;48.800;9.086;2023-07-31T07:26:06;5.57;;;1.30;;
71937;SDS011;59810;48.800;9.086;2023-07-31T07:28:31;5.00;;;1.47;;
71937;SDS011;59810;48.800;9.086;2023-07-31T07:30:56;5.07;;;1.37;;
71937;SDS011;59810;48.800;9.086;2023-07-31T07:33:22;6.03;;;1.60;;
71937;SDS011;59810;48.800;9.086;2023-07-31T07:35:48;5.50;;;1.60;;
71937;SDS011;59810;48.800;9.086;2023-07-31T07:38:14;6.28;;;1.50;;
71937;SDS011;59810;48.800;9.086;2023-07-31T07:40:40;7.40;;;1.80;;
71937;SDS011;59810;48.800;9.086;2023-07-31T07:43:05;10.60;;;1.40;;
71937;SDS011;59810;48.800;9.086;2023-07-31T07:45:31;5.63;;;1.40;;
71937;SDS011;59810;48.800;9.086;2023-07-31T07:47:56;5.70;;;1.60;;
71937;SDS011;59810;48.800;9.086;2023-07-31T07:50:22;5.83;;;1.40;;
71937;SDS011;59810;48.800;9.086;2023-07-31T07:52:48;5.97;;;1.80;;
71937;SDS011;59810;48.800;9.086;2023-07-31T07:55:13;8.13;;;1.77;;
71937;SDS011;59810;48.800;9.086;2023-07-31T07:57:38;4.43;;;1.27;;
71937;SDS011;59810;48.800;9.086;2023-07-31T08:00:04;6.67;;;1.77;;
71937;SDS011;59810;48.800;9.086;2023-07-31T08:02:30;6.60;;;1.73;;
71937;SDS011;59810;48.800;9.086;2023-07-31T08:04:56;6.43;;;1.80;;
71937;SDS011;59810;48.800;9.086;2023-07-31T08:07:21;6.93;;;1.60;;
71937;SDS011;59810;48.800;9.086;2023-07-31T08:09:46;4.00;;;1.40;;
71937;SDS011;59810;48.800;9.086;2023-07-31T08:12:12;4.83;;;1.40;;
71937;SDS011;59810;48.800;9.086;2023-07-31T08:14:37;5.07;;;1.53;;
71937;SDS011;59810;48.800;9.086;2023-07-31T08:17:03;7.50;;;1.60;;
71937;SDS011;59810;48.800;9.086;2023-07-31T08:19:28;7.60;;;2.10;;
71937;SDS011;59810;48.800;9.086;2023-07-31T08:21:53;5.03;;;1.67;;
71937;SDS011;59810;48.800;9.086;2023-07-31T08:24:19;5.10;;;1.40;;
71937;SDS011;59810;48.800;9.086;2023-07-31T08:26:44;5.83;;;1.60;;
71937;SDS011;59810;48.800;9.086;2023-07-31T08:29:09;6.80;;;1.50;;
71937;SDS011;59810;48.800;9.086;2023-07-31T08:31:34;6.70;;;1.60;;
71937;SDS011;59810;48.800;9.086;2023-07-31T08:34:00;4.13;;;1.37;;
71937;SDS011;59810;48.800;9.086;2023-07-31T08:36:25;6.63;;;1.70;;
71937;SDS011;59810;48.800;9.086;2023-07-31T08:38:51;5.30;;;1.42;;
71937;SDS011;59810;48.800;9.086;2023-07-31T08:41:16;5.43;;;1.40;;
71937;SDS011;59810;48.800;9.086;2023-07-31T08:43:48;5.50;;;1.50;;
71937;SDS011;59810;48.800;9.086;2023-07-31T08:46:14;4.97;;;1.60;;
71937;SDS011;59810;48.800;9.086;2023-07-31T08:48:41;4.43;;;1.60;;
71937;SDS011;59810;48.800;9.086;2023-07-31T08:51:07;7.00;;;1.50;;
71937;SDS011;59810;48.800;9.086;2023-07-31T08:53:33;6.63;;;1.70;;
71937;SDS011;59810;48.800;9.086;2023-07-31T08:55:59;7.82;;;1.63;;
71937;SDS011;59810;48.800;9.086;2023-07-31T08:58:24;9.00;;;1.90;;
71937;SDS011;59810;48.800;9.086;2023-07-31T09:00:52;5.88;;;1.70;;
71937;SDS011;59810;48.800;9.086;2023-07-31T09:03:20;8.07;;;1.80;;
71937;SDS011;59810;48.800;9.086;2023-07-31T09:05:47;5.07;;;1.63;;
71937;SDS011;59810;48.800;9.086;2023-07-31T09:08:15;6.20;;;1.70;;
71937;SDS011;59810;48.800;9.086;2023-07-31T09:10:45;7.63;;;1.73;;
71937;SDS011;59810;48.800;9.086;2023-07-31T09:13:12;7.38;;;1.40;;
71937;SDS011;59810;48.800;9.086;2023-07-31T09:15:38;7.45;;;1.58;;
71937;SDS011;59810;48.800;9.086;2023-07-31T09:18:05;7.70;;;2.10;;
71937;SDS011;59810;48.800;9.086;2023-07-31T09:20:31;4.97;;;1.90;;
71937;SDS011;59810;48.800;9.086;2023-07-31T09:23:04;8.47;;;1.80;;
71937;SDS011;59810;48.800;9.086;2023-07-31T09:25:31;7.78;;;1.83;;
71937;SDS011;59810;48.800;9.086;2023-07-31T09:27:58;7.25;;;1.80;;
71937;SDS011;59810;48.800;9.086;2023-07-31T09:30:24;6.60;;;1.63;;
71937;SDS011;59810;48.800;9.086;2023-07-31T09:32:51;5.03;;;1.67;;
71937;SDS011;59810;48.800;9.086;2023-07-31T09:35:28;6.40;;;1.80;;
71937;SDS011;59810;48.800;9.086;2023-07-31T09:37:56;5.72;;;1.88;;
71937;SDS011;59810;48.800;9.086;2023-07-31T09:40:30;6.72;;;1.90;;
71937;SDS011;59810;48.800;9.086;2023-07-31T09:42:57;6.85;;;1.88;;
71937;SDS011;59810;48.800;9.086;2023-07-31T09:45:24;5.07;;;1.63;;
71937;SDS011;59810;48.800;9.086;2023-07-31T09:47:50;6.80;;;1.55;;
71937;SDS011;59810;48.800;9.086;2023-07-31T09:50:16;5.63;;;1.80;;
71937;SDS011;59810;48.800;9.086;2023-07-31T09:52:42;5.30;;;1.80;;
71937;SDS011;59810;48.800;9.086;2023-07-31T09:55:09;5.73;;;1.70;;
71937;SDS011;59810;48.800;9.086;2023-07-31T09:57:41;8.00;;;2.08;;
71937;SDS011;59810;48.800;9.086;2023-07-31T10:00:09;5.32;;;1.70;;
71937;SDS011;59810;48.800;9.086;2023-07-31T10:02:36;6.10;;;1.85;;
71937;SDS011;59810;48.800;9.086;2023-07-31T10:05:03;6.70;;;1.90;;
71937;SDS011;59810;48.800;9.086;2023-07-31T10:07:30;6.78;;;1.40;;
71937;SDS011;59810;48.800;9.086;2023-07-31T10:09:59;4.45;;;1.50;;
71937;SDS011;59810;48.800;9.086;2023-07-31T10:12:26;6.15;;;1.85;;
71937;SDS011;59810;48.800;9.086;2023-07-31T10:14:55;6.82;;;2.10;;
71937;SDS011;59810;48.800;9.086;2023-07-31T10:17:22;6.23;;;1.50;;
71937;SDS011;59810;48.800;9.086;2023-07-31T10:19:48;6.72;;;2.15;;
71937;SDS011;59810;48.800;9.086;2023-07-31T10:22:15;5.65;;;1.80;;
71937;SDS011;59810;48.800;9.086;2023-07-31T10:24:42;7.45;;;2.20;;
71937;SDS011;59810;48.800;9.086;2023-07-31T10:27:08;8.77;;;2.08;;
71937;SDS011;59810;48.800;9.086;2023-07-31T10:29:34;6.43;;;1.80;;
71937;SDS011;59810;48.800;9.086;2023-07-31T10:32:01;5.20;;;2.00;;
71937;SDS011;59810;48.800;9.086;2023-07-31T10:34:31;6.97;;;2.10;;
71937;SDS011;59810;48.800;9.086;2023-07-31T10:37:18;5.63;;;2.00;;
71937;SDS011;59810;48.800;9.086;2023-07-31T10:39:58;5.40;;;1.83;;
71937;SDS011;59810;48.800;9.086;2023-07-31T10:42:29;5.87;;;1.90;;
71937;SDS011;59810;48.800;9.086;2023-07-31T10:44:59;9.40;;;1.90;;
71937;SDS011;59810;48.800;9.086;2023-07-31T10:47:38;7.43;;;1.98;;
71937;SDS011;59810;48.800;9.086;2023-07-31T10:50:17;8.60;;;2.20;;
71937;SDS011;59810;48.800;9.086;2023-07-31T10:52:44;7.25;;;2.13;;
71937;SDS011;59810;48.800;9.086;2023-07-31T10:55:31;7.53;;;2.10;;
71937;SDS011;59810;48.800;9.086;2023-07-31T10:58:05;5.22;;;1.70;;
71937;SDS011;59810;48.800;9.086;2023-07-31T11:00:43;5.15;;;1.80;;
71937;SDS011;59810;48.800;9.086;2023-07-31T11:03:10;5.82;;;1.95;;
71937;SDS011;59810;48.800;9.086;2023-07-31T11:05:54;6.45;;;2.08;;
71937;SDS011;59810;48.800;9.086;2023-07-31T11:08:32;5.23;;;1.80;;
71937;SDS011;59810;48.800;9.086;2023-07-31T11:13:33;6.63;;;2.25;;
71937;SDS011;59810;48.800;9.086;2023-07-31T11:16:04;6.30;;;1.90;;
71937;SDS011;59810;48.800;9.086;2023-07-31T11:18:30;7.07;;;2.70;;
71937;SDS011;59810;48.800;9.086;2023-07-31T11:20:55;7.43;;;2.20;;
71937;SDS011;59810;48.800;9.086;2023-07-31T11:23:21;7.73;;;2.03;;
71937;SDS011;59810;48.800;9.086;2023-07-31T11:25:47;6.55;;;2.30;;
71937;SDS011;59810;48.800;9.086;2023-07-31T11:28:13;6.38;;;2.17;;
71937;SDS011;59810;48.800;9.086;2023-07-31T11:30:40;6.63;;;2.00;;
71937;SDS011;59810;48.800;9.086;2023-07-31T11:33:06;5.78;;;2.20;;
71937;SDS011;59810;48.800;9.086;2023-07-31T11:35:33;7.47;;;2.20;;
71937;SDS011;59810;48.800;9.086;2023-07-31T11:38:00;6.38;;;1.95;;
71937;SDS011;59810;48.800;9.086;2023-07-31T11:40:26;6.03;;;2.17;;
71937;SDS011;59810;48.800;9.086;2023-07-31T11:42:56;6.73;;;2.13;;
71937;SDS011;59810;48.800;9.086;2023-07-31T11:45:24;5.13;;;2.15;;
71937;SDS011;59810;48.800;9.086;2023-07-31T11:47:50;6.45;;;1.90;;
71937;SDS011;59810;48.800;9.086;2023-07-31T11:50:16;7.17;;;2.30;;
71937;SDS011;59810;48.800;9.086;2023-07-31T11:52:42;6.23;;;2.27;;
71937;SDS011;59810;48.800;9.086;2023-07-31T11:55:09;6.25;;;2.63;;
71937;SDS011;59810;48.800;9.086;2023-07-31T11:57:36;6.13;;;2.17;;
71937;SDS011;59810;48.800;9.086;2023-07-31T12:00:04;6.00;;;2.22;;
71937;SDS011;59810;48.800;9.086;2023-07-31T12:02:32;5.65;;;2.00;;
71937;SDS011;59810;48.800;9.086;2023-07-31T12:04:57;5.80;;;2.30;;
71937;SDS011;59810;48.800;9.086;2023-07-31T12:07:23;4.80;;;1.87;;
71937;SDS011;59810;48.800;9.086;2023-07-31T12:09:55;4.63;;;2.00;;
71937;SDS011;59810;48.800;9.086;2023-07-31T12:12:22;5.47;;;2.10;;
71937;SDS011;59810;48.800;9.086;2023-07-31T12:14:48;6.85;;;2.03;;
71937;SDS011;59810;48.800;9.086;2023-07-31T12:17:15;6.43;;;2.20;;
71937;SDS011;59810;48.800;9.086;2023-07-31T12:19:42;6.18;;;2.08;;
71937;SDS011;59810;48.800;9.086;2023-07-31T12:22:14;8.23;;;2.60;;
71937;SDS011;59810;48.800;9.086;2023-07-31T12:24:41;7.93;;;2.63;;
71937;SDS011;59810;48.800;9.086;2023-07-31T12:27:12;7.80;;;2.22;;
71937;SDS011;59810;48.800;9.086;2023-07-31T12:29:41;6.07;;;2.22;;
71937;SDS011;59810;48.800;9.086;2023-07-31T12:32:20;5.65;;;2.40;;
71937;SDS011;59810;48.800;9.086;2023-07-31T12:34:45;7.53;;;2.57;;
71937;SDS011;59810;48.800;9.086;2023-07-31T12:37:10;7.23;;;2.17;;
71937;SDS011;59810;48.800;9.086;2023-07-31T12:39:36;4.57;;;1.80;;
71937;SDS011;59810;48.800;9.086;2023-07-31T12:42:01;7.17;;;2.20;;
71937;SDS011;59810;48.800;9.086;2023-07-31T12:44:27;7.37;;;2.47;;
71937;SDS011;59810;48.800;9.086;2023-07-31T12:46:52;6.55;;;1.85;;
71937;SDS011;59810;48.800;9.086;2023-07-31T12:49:17;6.40;;;2.10;;
71937;SDS011;59810;48.800;9.086;2023-07-31T12:51:43;7.10;;;2.13;;
71937;SDS011;59810;48.800;9.086;2023-07-31T12:54:08;7.13;;;2.20;;
71937;SDS011;59810;48.800;9.086;2023-07-31T12:56:33;7.43;;;2.23;;
71937;SDS011;59810;48.800;9.086;2023-07-31T12:58:59;6.37;;;2.13;;
71937;SDS011;59810;48.800;9.086;2023-07-31T13:01:24;5.00;;;2.20;;
71937;SDS011;59810;48.800;9.086;2023-07-31T13:03:49;5.00;;;2.10;;
71937;SDS011;59810;48.800;9.086;2023-07-31T13:06:15;5.65;;;2.20;;
71937;SDS011;59810;48.800;9.086;2023-07-31T13:08:40;5.50;;;2.20;;
71937;SDS011;59810;48.800;9.086;2023-07-31T13:11:05;5.40;;;1.80;;
71937;SDS011;59810;48.800;9.086;2023-07-31T13:13:31;6.77;;;2.43;;
71937;SDS011;59810;48.800;9.086;2023-07-31T13:15:56;8.57;;;1.90;;
71937;SDS011;59810;48.800;9.086;2023-07-31T13:18:21;6.00;;;2.10;;
71937;SDS011;59810;48.800;9.086;2023-07-31T13:20:47;7.07;;;1.98;;
71937;SDS011;59810;48.800;9.086;2023-07-31T13:23:12;5.97;;;2.07;;
71937;SDS011;59810;48.800;9.086;2023-07-31T13:25:37;5.23;;;2.07;;
71937;SDS011;59810;48.800;9.086;2023-07-31T13:28:03;6.03;;;1.97;;
71937;SDS011;59810;48.800;9.086;2023-07-31T13:30:28;5.80;;;2.17;;
71937;SDS011;59810;48.800;9.086;2023-07-31T13:32:54;6.00;;;2.10;;
71937;SDS011;59810;48.800;9.086;2023-07-31T13:35:19;5.73;;;1.80;;
71937;SDS011;59810;48.800;9.086;2023-07-31T13:37:44;5.43;;;2.33;;
71937;SDS011;59810;48.800;9.086;2023-07-31T13:40:10;5.43;;;2.07;;
71937;SDS011;59810;48.800;9.086;2023-07-31T13:42:35;4.95;;;2.00;;
71937;SDS011;59810;48.800;9.086;2023-07-31T13:45:01;6.67;;;2.30;;
71937;SDS011;59810;48.800;9.086;2023-07-31T13:47:26;6.80;;;1.80;;
71937;SDS011;59810;48.800;9.086;2023-07-31T13:49:51;5.40;;;2.10;;
71937;SDS011;59810;48.800;9.086;2023-07-31T13:52:17;6.90;;;1.97;;
71937;SDS011;59810;48.800;9.086;2023-07-31T13:54:42;6.67;;;2.17;;
71937;SDS011;59810;48.800;9.086;2023-07-31T13:57:08;7.30;;;2.00;;
71937;SDS011;59810;48.800;9.086;2023-07-31T13:59:33;5.13;;;2.10;;
71937;SDS011;59810;48.800;9.086;2023-07-31T14:01:59;5.55;;;2.05;;
71937;SDS011;59810;48.800;9.086;2023-07-31T14:04:24;5.70;;;2.10;;
71937;SDS011;59810;48.800;9.086;2023-07-31T14:06:49;7.43;;;2.30;;
71937;SDS011;59810;48.800;9.086;2023-07-31T14:09:15;6.57;;;2.00;;
71937;SDS011;59810;48.800;9.086;2023-07-31T14:11:42;5.47;;;1.88;;
71937;SDS011;59810;48.800;9.086;2023-07-31T14:14:08;5.53;;;1.90;;
71937;SDS011;59810;48.800;9.086;2023-07-31T14:16:37;7.82;;;2.20;;
71937;SDS011;59810;48.800;9.086;2023-07-31T14:19:02;6.83;;;2.07;;
71937;SDS011;59810;48.800;9.086;2023-07-31T14:21:28;4.60;;;2.27;;
71937;SDS011;59810;48.800;9.086;2023-07-31T14:23:53;4.73;;;2.00;;
71937;SDS011;59810;48.800;9.086;2023-07-31T14:26:19;5.50;;;2.13;;
71937;SDS011;59810;48.800;9.086;2023-07-31T14:28:45;6.05;;;2.00;;
71937;SDS011;59810;48.800;9.086;2023-07-31T14:31:10;5.40;;;2.33;;
71937;SDS011;59810;48.800;9.086;2023-07-31T14:33:35;6.80;;;2.00;;
71937;SDS011;59810;48.800;9.086;2023-07-31T14:36:01;6.13;;;2.30;;
71937;SDS011;59810;48.800;9.086;2023-07-31T14:38:26;5.88;;;2.20;;
71937;SDS011;59810;48.800;9.086;2023-07-31T14:40:52;6.27;;;2.03;;
71937;SDS011;59810;48.800;9.086;2023-07-31T14:43:17;7.30;;;2.13;;
71937;SDS011;59810;48.800;9.086;2023-07-31T14:45:42;6.63;;;2.23;;
71937;SDS011;59810;48.800;9.086;2023-07-31T14:48:08;5.18;;;2.03;;